Time;durP1;ratioP1;P1;durP2;ratioP2;P2;SDS_P1;SDS_P2;PMS_P1;PMS_P2;Temp;Humidity;BMP_temperature;BMP_pressure;BME280_temperature;BME280_humidity;BME280_pressure;Samples;Min_cycle;Max_cycle;Signal;HPM_P1;HPM_P2
2023/05/01 00:01:18;;;;;;;;;;;;;;;24.66;39.58;99087.61;1837919;77;20255;-49
2023/05/01 00:04:06;;;;;;;;;;;;;;;24.66;39.59;99083.48;1846277;77;20145;-50
2023/05/01 00:06:53;;;;;;;;;;;;;;;24.65;39.59;99074.41;1844955;77;20128;-51
2023/05/01 00:09:41;;;;;;;;;;;;;;;24.65;39.59;99075.78;1854373;77;20163;-48
2023/05/01 00:12:28;;;;;;;;;;;;;;;24.67;39.58;99074.14;1839833;77;20168;-50
2023/05/01 00:15:16;;;;;;;;;;;;;;;24.66;39.60;99071.13;1850072;77;20200;-51
2023/05/01 00:18:03;;;;;;;;;;;;;;;24.64;39.60;99072.73;1824041;79;20200;-50
2023/05/01 00:20:51;;;;;;;;;;;;;;;24.68;39.59;99073.07;1850566;77;20168;-52
2023/05/01 00:23:38;;;;;;;;;;;;;;;24.67;39.57;99066.73;1854171;77;20180;-53
2023/05/01 00:26:29;;;;;;;;;;;;;;;24.68;39.56;99062.92;1854116;77;20175;-48
2023/05/01 00:29:16;;;;;;;;;;;;;;;24.66;39.59;99062.35;1840764;77;20224;-52
2023/05/01 00:32:04;;;;;;;;;;;;;;;24.67;39.57;99058.50;1843032;77;20200;-50
2023/05/01 00:34:52;;;;;;;;;;;;;;;24.67;39.57;99056.29;1854383;77;20203;-51
2023/05/01 00:37:39;;;;;;;;;;;;;;;24.66;39.60;99051.37;1865179;76;20192;-53
2023/05/01 00:40:26;;;;;;;;;;;;;;;24.65;39.59;99050.23;1824994;78;20127;-49
2023/05/01 00:43:14;;;;;;;;;;;;;;;24.67;39.57;99050.80;1854491;77;20284;-48
2023/05/01 00:46:02;;;;;;;;;;;;;;;24.67;39.56;99044.77;1815958;78;20184;-51
2023/05/01 00:48:49;;;;;;;;;;;;;;;24.69;39.53;99049.45;1823390;78;20199;-49
2023/05/01 00:51:37;;;;;;;;;;;;;;;24.68;39.55;99046.44;1827366;78;20155;-50
2023/05/01 00:54:27;;;;;;;;;;;;;;;24.69;39.54;99046.70;1855030;77;20256;-49
2023/05/01 00:57:14;;;;;;;;;;;;;;;24.69;39.53;99037.09;1866477;77;20242;-48
2023/05/01 01:00:03;;;;;;;;;;;;;;;24.69;39.53;99028.85;1854883;77;20199;-50
2023/05/01 01:02:51;;;;;;;;;;;;;;;24.71;39.49;99025.30;1840963;78;20145;-49
2023/05/01 01:05:40;;;;;;;;;;;;;;;24.71;39.45;99023.12;1842164;78;20311;-54
2023/05/01 01:08:32;;;;;;;;;;;;;;;24.72;39.42;99021.48;1862697;77;20196;-50
2023/05/01 01:11:21;;;;;;;;;;;;;;;24.78;39.36;99022.94;1854029;77;20191;-53
2023/05/01 01:14:10;;;;;;;;;;;;;;;24.79;39.38;99016.33;1849776;77;20164;-49
2023/05/01 01:17:02;;;;;;;;;;;;;;;24.77;39.32;99008.91;1844096;77;20166;-51
2023/05/01 01:19:51;;;;;;;;;;;;;;;24.81;39.33;99009.49;1838561;77;20167;-52
2023/05/01 01:22:40;;;;;;;;;;;;;;;24.76;39.34;98996.24;1844505;77;20196;-51
2023/05/01 01:25:38;;;;;;;;;;;;;;;24.80;39.35;98999.61;1839887;78;20119;-52
2023/05/01 01:28:32;;;;;;;;;;;;;;;24.79;39.35;99002.06;1771230;78;20147;-52
2023/05/01 01:31:34;;;;;;;;;;;;;;;24.78;39.36;99000.42;1818905;78;20186;-53
2023/05/01 01:34:26;;;;;;;;;;;;;;;24.81;39.33;98996.33;1839538;78;20219;-52
2023/05/01 01:37:18;;;;;;;;;;;;;;;24.79;39.37;98988.86;1869403;76;20161;-49
2023/05/01 01:40:07;;;;;;;;;;;;;;;24.79;39.33;98992.45;1858603;77;20161;-51
2023/05/01 01:43:07;;;;;;;;;;;;;;;24.80;39.33;98991.91;1827588;78;20221;-49
2023/05/01 01:46:00;;;;;;;;;;;;;;;24.80;39.35;98985.04;1863369;77;20169;-52
2023/05/01 01:48:49;;;;;;;;;;;;;;;24.78;39.41;98991.34;1831429;78;20150;-53
2023/05/01 01:51:37;;;;;;;;;;;;;;;24.78;39.42;98993.55;1843014;76;20223;-52
2023/05/01 01:54:26;;;;;;;;;;;;;;;24.79;39.37;98997.94;1825488;78;20166;-52
2023/05/01 01:57:15;;;;;;;;;;;;;;;24.77;39.39;98994.63;1844184;77;20185;-52
2023/05/01 02:00:07;;;;;;;;;;;;;;;24.78;39.39;98987.22;1818969;78;20213;-50
2023/05/01 02:02:55;;;;;;;;;;;;;;;24.80;39.35;98991.91;1821536;78;20151;-49
2023/05/01 02:05:43;;;;;;;;;;;;;;;24.77;39.36;98982.27;1817085;78;20231;-51
2023/05/01 02:08:31;;;;;;;;;;;;;;;24.78;39.41;98992.18;1839095;77;20252;-51
2023/05/01 02:11:29;;;;;;;;;;;;;;;24.77;39.41;98986.39;1824370;78;20187;-52
2023/05/01 02:14:18;;;;;;;;;;;;;;;24.79;39.37;98984.20;1808009;79;20175;-52
2023/05/01 02:17:06;;;;;;;;;;;;;;;24.79;39.40;98990.23;1812833;78;20177;-49
2023/05/01 02:19:55;;;;;;;;;;;;;;;24.79;39.40;98990.23;1822248;78;20201;-49
2023/05/01 02:22:45;;;;;;;;;;;;;;;24.79;39.42;98986.95;1843619;77;20200;-50
2023/05/01 02:25:35;;;;;;;;;;;;;;;24.81;39.34;98982.59;1838168;77;20164;-54
2023/05/01 02:28:23;;;;;;;;;;;;;;;24.80;39.37;98980.92;1821011;78;20130;-56
2023/05/01 02:31:10;;;;;;;;;;;;;;;24.78;39.41;98983.94;1801260;78;20134;-52
2023/05/01 02:33:58;;;;;;;;;;;;;;;24.79;39.44;98988.86;1825322;78;20208;-52
2023/05/01 02:36:45;;;;;;;;;;;;;;;24.80;39.43;98980.38;1826069;78;20239;-54
2023/05/01 02:39:34;;;;;;;;;;;;;;;24.81;39.43;98978.47;1838775;78;20195;-52
2023/05/01 02:42:22;;;;;;;;;;;;;;;24.81;39.43;98977.09;1825094;78;20182;-51
2023/05/01 02:45:10;;;;;;;;;;;;;;;24.79;39.40;98975.97;1851467;77;20197;-50
2023/05/01 02:47:59;;;;;;;;;;;;;;;24.82;39.34;98980.11;1826340;78;20201;-51
2023/05/01 02:50:48;;;;;;;;;;;;;;;24.83;39.29;98979.87;1823117;78;20158;-52
2023/05/01 02:53:38;;;;;;;;;;;;;;;24.80;39.27;98979.01;1836860;78;20191;-52
2023/05/01 02:56:28;;;;;;;;;;;;;;;24.78;39.30;98972.95;1813500;79;20220;-52
2023/05/01 02:59:15;;;;;;;;;;;;;;;24.76;39.32;98972.39;1816864;78;20208;-51
2023/05/01 03:02:03;;;;;;;;;;;;;;;24.79;39.33;98980.63;1839364;78;20177;-53
2023/05/01 03:04:51;;;;;;;;;;;;;;;24.80;39.29;98980.92;1829188;78;20127;-54
2023/05/01 03:07:38;;;;;;;;;;;;;;;24.77;39.25;98973.19;1813673;79;20218;-53
2023/05/01 03:10:26;;;;;;;;;;;;;;;24.77;39.28;98971.82;1838780;78;20178;-50
2023/05/01 03:13:14;;;;;;;;;;;;;;;24.80;39.28;98972.14;1844049;78;20162;-52
2023/05/01 03:16:03;;;;;;;;;;;;;;;24.79;39.27;98977.88;1846791;77;20198;-54
2023/05/01 03:18:50;;;;;;;;;;;;;;;24.74;39.30;98969.84;1819332;78;20245;-51
2023/05/01 03:21:37;;;;;;;;;;;;;;;24.77;39.31;98967.16;1858010;77;20153;-49
2023/05/01 03:24:24;;;;;;;;;;;;;;;24.74;39.33;98960.77;1831194;78;20186;-53
2023/05/01 03:27:12;;;;;;;;;;;;;;;24.79;39.37;98965.52;1819539;79;20215;-49
2023/05/01 03:29:59;;;;;;;;;;;;;;;24.77;39.30;98961.66;1835175;78;20227;-54
2023/05/01 03:32:48;;;;;;;;;;;;;;;24.80;39.41;98964.44;1847786;78;20185;-50
2023/05/01 03:35:40;;;;;;;;;;;;;;;24.78;39.36;98963.87;1819599;79;20217;-52
2023/05/01 03:38:27;;;;;;;;;;;;;;;24.78;39.28;98966.63;1843314;78;20123;-54
2023/05/01 03:41:31;;;;;;;;;;;;;;;24.74;39.32;98968.48;1846747;78;20123;-53
2023/05/01 03:44:23;;;;;;;;;;;;;;;24.76;39.37;98968.77;1848028;78;20131;-50
2023/05/01 03:47:12;;;;;;;;;;;;;;;24.72;39.44;98969.83;1832317;78;20125;-53
2023/05/01 03:50:01;;;;;;;;;;;;;;;24.76;39.44;98968.77;1819578;79;20180;-54
2023/05/01 03:52:49;;;;;;;;;;;;;;;24.77;39.37;98967.70;1826019;78;20170;-54
2023/05/01 03:55:37;;;;;;;;;;;;;;;24.76;39.48;98966.89;1839708;78;20179;-52
2023/05/01 03:58:24;;;;;;;;;;;;;;;24.77;39.46;98968.53;1842050;78;20210;-52
2023/05/01 04:01:13;;;;;;;;;;;;;;;24.78;39.47;98968.83;1830762;78;20162;-54
2023/05/01 04:04:02;;;;;;;;;;;;;;;24.76;39.51;98965.52;1849740;78;20181;-52
2023/05/01 04:06:50;;;;;;;;;;;;;;;24.79;39.49;98969.64;1840211;78;20144;-52
2023/05/01 04:09:37;;;;;;;;;;;;;;;24.77;39.49;98965.78;1819562;79;20167;-54
2023/05/01 04:12:25;;;;;;;;;;;;;;;24.79;39.45;98963.60;1827379;78;20213;-51
2023/05/01 04:15:12;;;;;;;;;;;;;;;24.78;39.52;98955.63;1846793;78;20127;-54
2023/05/01 04:18:00;;;;;;;;;;;;;;;24.80;39.44;98956.20;1842715;78;20174;-53
2023/05/01 04:20:47;;;;;;;;;;;;;;;24.79;39.51;98951.24;1819675;79;20127;-50
2023/05/01 04:23:35;;;;;;;;;;;;;;;24.79;39.52;98962.23;1836471;78;20173;-50
2023/05/01 04:26:23;;;;;;;;;;;;;;;24.78;39.54;98969.37;1847699;78;20159;-53
2023/05/01 04:29:11;;;;;;;;;;;;;;;24.78;39.38;98967.99;1836403;78;20186;-51
2023/05/01 04:31:58;;;;;;;;;;;;;;;24.78;39.41;98963.87;1844020;78;20204;-52
2023/05/01 04:34:47;;;;;;;;;;;;;;;24.77;39.33;98965.78;1845885;78;20230;-53
2023/05/01 04:37:35;;;;;;;;;;;;;;;24.77;39.39;98973.19;1848033;78;20178;-51
2023/05/01 04:40:23;;;;;;;;;;;;;;;24.77;39.26;98972.66;1821243;78;20267;-52
2023/05/01 04:43:12;;;;;;;;;;;;;;;24.76;39.33;98971.52;1835981;78;20205;-49
2023/05/01 04:46:00;;;;;;;;;;;;;;;24.76;39.36;98972.89;1818824;78;20172;-51
2023/05/01 04:48:47;;;;;;;;;;;;;;;24.77;39.46;98977.31;1827373;78;20165;-50
2023/05/01 04:51:35;;;;;;;;;;;;;;;24.76;39.50;98975.64;1818704;79;20229;-50
2023/05/01 04:54:23;;;;;;;;;;;;;;;24.76;39.60;98980.63;1891294;76;20247;-50
2023/05/01 04:57:11;;;;;;;;;;;;;;;24.77;39.57;98976.77;1883757;75;20193;-50
2023/05/01 05:00:00;;;;;;;;;;;;;;;24.77;39.57;98982.80;1914499;75;20170;-50
2023/05/01 05:02:49;;;;;;;;;;;;;;;24.77;39.63;98971.82;1889619;75;20281;-51
2023/05/01 05:05:37;;;;;;;;;;;;;;;24.76;39.65;98978.39;1890911;75;20131;-51
2023/05/01 05:08:25;;;;;;;;;;;;;;;24.76;39.65;98975.64;1914492;75;20123;-51
2023/05/01 05:11:18;;;;;;;;;;;;;;;24.75;39.62;98976.18;1892171;75;20122;-50
2023/05/01 05:14:10;;;;;;;;;;;;;;;24.77;39.65;98985.02;1893324;75;20202;-52
2023/05/01 05:16:57;;;;;;;;;;;;;;;24.74;39.67;98980.84;1890724;75;20229;-51
2023/05/01 05:19:46;;;;;;;;;;;;;;;24.76;39.60;98981.14;1889116;75;20164;-50
2023/05/01 05:22:36;;;;;;;;;;;;;;;24.76;39.58;98988.00;1897330;75;20254;-53
2023/05/01 05:25:25;;;;;;;;;;;;;;;24.77;39.58;98985.02;1904786;75;20128;-51
2023/05/01 05:28:12;;;;;;;;;;;;;;;24.77;39.62;98993.80;1903594;75;20169;-55
2023/05/01 05:31:02;;;;;;;;;;;;;;;24.76;39.65;98990.25;1902651;75;20192;-53
2023/05/01 05:33:51;;;;;;;;;;;;;;;24.76;39.61;98997.11;1891769;75;20126;-52
2023/05/01 05:36:39;;;;;;;;;;;;;;;24.72;39.53;99002.25;1878241;75;20124;-51
2023/05/01 05:39:27;;;;;;;;;;;;;;;24.66;39.42;98992.85;1899185;75;20204;-53
2023/05/01 05:42:14;;;;;;;;;;;;;;;24.70;39.36;99003.05;1878491;75;20169;-50
2023/05/01 05:45:02;;;;;;;;;;;;;;;24.74;39.58;98999.23;1894866;75;20171;-49
2023/05/01 05:47:50;;;;;;;;;;;;;;;24.74;39.69;99003.35;1896613;75;20207;-51
2023/05/01 05:50:39;;;;;;;;;;;;;;;24.76;39.62;99006.73;1914143;75;20177;-50
2023/05/01 05:53:27;;;;;;;;;;;;;;;24.57;39.18;99000.74;1900279;75;20126;-49
2023/05/01 05:56:15;;;;;;;;;;;;;;;24.53;39.33;99005.61;1903999;75;20184;-50
2023/05/01 05:59:05;;;;;;;;;;;;;;;24.55;39.31;99011.70;1903663;75;20128;-51
2023/05/01 06:01:52;;;;;;;;;;;;;;;24.56;39.23;98990.83;1903520;75;20173;-52
2023/05/01 06:04:40;;;;;;;;;;;;;;;24.59;39.17;99006.80;1909492;75;20118;-51
2023/05/01 06:07:27;;;;;;;;;;;;;;;24.59;39.04;99005.42;1892251;75;20146;-50
2023/05/01 06:10:15;;;;;;;;;;;;;;;24.62;38.91;99003.52;1892789;75;20152;-48
2023/05/01 06:13:03;;;;;;;;;;;;;;;24.62;38.92;99004.89;1896731;75;20214;-50
2023/05/01 06:15:51;;;;;;;;;;;;;;;24.60;39.05;99012.56;1889615;75;20200;-51
2023/05/01 06:18:39;;;;;;;;;;;;;;;24.62;39.07;99008.20;1894914;75;20170;-53
2023/05/01 06:21:26;;;;;;;;;;;;;;;24.62;39.05;99006.26;1893137;75;20203;-49
2023/05/01 06:24:14;;;;;;;;;;;;;;;24.62;39.08;99004.89;1891667;75;20111;-50
2023/05/01 06:27:03;;;;;;;;;;;;;;;24.61;39.13;99001.03;1904547;75;20124;-51
2023/05/01 06:29:51;;;;;;;;;;;;;;;24.61;39.11;98999.12;1908099;75;20181;-51
2023/05/01 06:32:40;;;;;;;;;;;;;;;24.62;39.14;99008.20;1894628;75;20152;-50
2023/05/01 06:35:28;;;;;;;;;;;;;;;24.60;39.16;99008.44;1891274;75;20122;-48
2023/05/01 06:38:15;;;;;;;;;;;;;;;24.61;39.19;99011.48;1896023;75;20123;-49
2023/05/01 06:41:06;;;;;;;;;;;;;;;24.62;39.16;99015.06;1912121;75;20126;-52
2023/05/01 06:43:54;;;;;;;;;;;;;;;24.61;39.17;99027.97;1901995;75;20148;-50
2023/05/01 06:46:41;;;;;;;;;;;;;;;24.62;39.18;99029.61;1890262;75;20200;-51
2023/05/01 06:49:29;;;;;;;;;;;;;;;24.63;39.32;99038.68;1890871;75;20189;-54
2023/05/01 06:52:16;;;;;;;;;;;;;;;24.65;39.23;99035.96;1896992;75;20199;-49
2023/05/01 06:55:04;;;;;;;;;;;;;;;24.65;39.21;99027.72;1901259;75;20226;-53
2023/05/01 06:57:51;;;;;;;;;;;;;;;24.68;39.18;99033.24;1914223;75;20162;-51
2023/05/01 07:00:38;;;;;;;;;;;;;;;24.66;39.17;99017.57;1898917;75;20261;-49
2023/05/01 07:03:32;;;;;;;;;;;;;;;24.66;39.14;99018.41;1899058;76;20227;-53
2023/05/01 07:06:15;;;;;;;;;;;;;;;24.67;39.14;99028.28;1901162;75;20197;-49
2023/05/01 07:09:03;;;;;;;;;;;;;;;24.65;39.13;99021.39;1898610;75;20214;-48
2023/05/01 07:11:51;;;;;;;;;;;;;;;24.66;39.19;99025.27;1887883;75;20160;-48
2023/05/01 07:14:40;;;;;;;;;;;;;;;24.68;39.12;99038.20;1897257;75;20232;-54
2023/05/01 07:17:29;;;;;;;;;;;;;;;24.68;39.16;99026.37;1909996;75;20156;-53
2023/05/01 07:20:16;;;;;;;;;;;;;;;24.66;39.14;99014.29;1895118;75;20162;-54
2023/05/01 07:23:04;;;;;;;;;;;;;;;24.66;39.14;99022.52;1889752;75;20154;-52
2023/05/01 07:25:52;;;;;;;;;;;;;;;24.66;39.13;99026.64;1882116;76;20179;-51
2023/05/01 07:28:40;;;;;;;;;;;;;;;24.67;39.15;99021.95;1883055;76;20171;-53
2023/05/01 07:31:28;;;;;;;;;;;;;;;24.67;39.12;99031.03;1904061;75;20151;-51
2023/05/01 07:34:17;;;;;;;;;;;;;;;24.68;39.16;99012.11;1903295;75;20177;-51
2023/05/01 07:37:04;;;;;;;;;;;;;;;24.69;39.10;99034.91;1891787;75;20114;-51
2023/05/01 07:39:52;;;;;;;;;;;;;;;24.70;39.09;99015.42;1905730;75;20164;-54
2023/05/01 07:42:39;;;;;;;;;;;;;;;24.72;39.05;99015.15;1905409;75;20155;-51
2023/05/01 07:45:27;;;;;;;;;;;;;;;24.72;39.04;99017.36;1908461;75;20119;-53
2023/05/01 07:48:14;;;;;;;;;;;;;;;24.72;39.07;99016.52;1899296;75;20122;-49
2023/05/01 07:51:02;;;;;;;;;;;;;;;24.70;39.21;99022.28;1897946;75;20273;-54
2023/05/01 07:53:50;;;;;;;;;;;;;;;24.76;39.11;99034.19;1897159;75;20115;-51
2023/05/01 07:56:37;;;;;;;;;;;;;;;24.74;39.10;99024.78;1903857;75;20194;-51
2023/05/01 07:59:25;;;;;;;;;;;;;;;24.71;39.13;99020.38;1897519;75;20153;-55
2023/05/01 08:02:12;;;;;;;;;;;;;;;24.71;39.16;99025.30;1918602;75;20279;-50
2023/05/01 08:05:01;;;;;;;;;;;;;;;24.69;39.16;99023.36;1900758;75;20249;-53
2023/05/01 08:07:49;;;;;;;;;;;;;;;24.69;39.21;99032.97;1900637;75;20165;-53
2023/05/01 08:10:36;;;;;;;;;;;;;;;24.71;39.17;99029.42;1890919;75;20251;-54
2023/05/01 08:13:24;;;;;;;;;;;;;;;24.72;39.18;99034.38;1909672;75;20173;-52
2023/05/01 08:16:11;;;;;;;;;;;;;;;24.73;39.16;99035.51;1915550;75;20147;-52
2023/05/01 08:18:58;;;;;;;;;;;;;;;24.70;39.19;99036.02;1897858;75;20126;-49
2023/05/01 08:21:46;;;;;;;;;;;;;;;24.73;39.26;99043.75;1913568;75;20174;-51
2023/05/01 08:24:33;;;;;;;;;;;;;;;24.72;39.22;99042.61;1902166;75;20201;-50
2023/05/01 08:27:21;;;;;;;;;;;;;;;24.69;39.29;99045.90;1887207;76;20165;-51
2023/05/01 08:30:09;;;;;;;;;;;;;;;24.70;39.27;99040.67;1910403;75;20154;-51
2023/05/01 08:32:56;;;;;;;;;;;;;;;24.71;39.24;99040.41;1895102;75;20150;-50
2023/05/01 08:35:44;;;;;;;;;;;;;;;24.69;39.24;99039.03;1886262;76;20212;-51
2023/05/01 08:38:31;;;;;;;;;;;;;;;24.71;39.35;99044.53;1898736;75;20162;-52
2023/05/01 08:41:20;;;;;;;;;;;;;;;24.70;39.40;99033.81;1913999;75;20202;-53
2023/05/01 08:44:10;;;;;;;;;;;;;;;24.72;39.27;99041.23;1905876;75;20164;-51
2023/05/01 08:47:05;;;;;;;;;;;;;;;24.69;39.38;99041.78;1912610;74;20212;-52
2023/05/01 08:49:54;;;;;;;;;;;;;;;24.68;39.53;99051.93;1899113;75;20169;-52
2023/05/01 08:52:42;;;;;;;;;;;;;;;24.65;39.83;99065.34;1907116;74;20149;-54
2023/05/01 08:55:31;;;;;;;;;;;;;;;24.66;39.81;99073.34;1912387;74;20185;-60
2023/05/01 08:58:21;;;;;;;;;;;;;;;24.64;40.02;99074.69;1915666;74;20224;-61
2023/05/01 09:01:09;;;;;;;;;;;;;;;24.67;40.02;99074.14;1898046;74;20232;-41
2023/05/01 09:03:58;;;;;;;;;;;;;;;24.66;40.18;99077.45;1902059;74;20181;-40
2023/05/01 09:06:45;;;;;;;;;;;;;;;24.67;40.32;99074.14;1935915;73;20195;-39
2023/05/01 09:09:33;;;;;;;;;;;;;;;24.60;40.40;99061.16;1918457;74;20123;-39
2023/05/01 09:12:27;;;;;;;;;;;;;;;24.69;40.35;99070.05;1909994;73;20249;-40
2023/05/01 09:15:11;;;;;;;;;;;;;;;24.67;40.51;99079.09;1919550;74;20157;-40
2023/05/01 09:18:00;;;;;;;;;;;;;;;24.65;40.72;99084.02;1896208;74;20178;-39
2023/05/01 09:20:47;;;;;;;;;;;;;;;24.68;40.69;99093.67;1930176;73;20164;-41
2023/05/01 09:23:36;;;;;;;;;;;;;;;24.67;40.83;99098.86;1918427;73;20189;-39
2023/05/01 09:26:24;;;;;;;;;;;;;;;24.71;40.64;99098.09;1910668;74;20118;-40
2023/05/01 09:29:13;;;;;;;;;;;;;;;24.71;40.82;99107.70;1919143;74;20145;-39
2023/05/01 09:32:02;;;;;;;;;;;;;;;24.67;40.81;99109.84;1906336;74;20161;-40
2023/05/01 09:34:50;;;;;;;;;;;;;;;24.70;41.04;99109.34;1909396;74;20184;-40
2023/05/01 09:37:38;;;;;;;;;;;;;;;24.71;41.09;99111.82;1917659;74;20204;-41
2023/05/01 09:40:27;;;;;;;;;;;;;;;24.70;41.06;99112.92;1901834;74;20289;-41
2023/05/01 09:43:16;;;;;;;;;;;;;;;24.72;41.28;99113.49;1908625;74;20173;-41
2023/05/01 09:46:05;;;;;;;;;;;;;;;24.72;41.33;99114.03;1891891;74;20213;-41
2023/05/01 09:48:57;;;;;;;;;;;;;;;24.73;41.43;99117.08;1881521;76;20226;-41
2023/05/01 09:51:44;;;;;;;;;;;;;;;24.75;41.46;99113.52;1887003;74;20163;-40
2023/05/01 09:54:32;;;;;;;;;;;;;;;24.76;41.37;99115.73;1891022;76;20224;-41
2023/05/01 09:57:20;;;;;;;;;;;;;;;24.70;41.33;99117.05;1882509;76;20202;-41
2023/05/01 10:00:11;;;;;;;;;;;;;;;24.72;41.41;99112.66;1874893;76;20199;-42
2023/05/01 10:03:00;;;;;;;;;;;;;;;24.75;41.42;99113.52;1876843;76;20203;-42
2023/05/01 10:05:47;;;;;;;;;;;;;;;24.76;41.47;99115.73;1892370;76;20190;-41
2023/05/01 10:08:36;;;;;;;;;;;;;;;24.73;41.50;99120.66;1893689;76;20195;-41
2023/05/01 10:11:25;;;;;;;;;;;;;;;24.73;41.46;99117.91;1878601;76;20215;-42
2023/05/01 10:14:13;;;;;;;;;;;;;;;24.73;41.58;99133.02;1891027;76;20247;-40
2023/05/01 10:17:01;;;;;;;;;;;;;;;24.73;41.62;99133.56;1888365;76;20190;-40
2023/05/01 10:19:50;;;;;;;;;;;;;;;24.71;41.57;99136.55;1890909;76;20179;-41
2023/05/01 10:22:38;;;;;;;;;;;;;;;24.71;41.55;99141.23;1883546;76;20232;-42
2023/05/01 10:25:26;;;;;;;;;;;;;;;24.72;41.64;99140.96;1891599;76;20314;-42
2023/05/01 10:28:14;;;;;;;;;;;;;;;24.71;41.66;99142.03;1893594;76;20289;-41
2023/05/01 10:31:02;;;;;;;;;;;;;;;24.72;41.60;99140.96;1894836;74;20221;-41
2023/05/01 10:33:51;;;;;;;;;;;;;;;24.70;41.66;99140.39;1883423;76;20202;-40
2023/05/01 10:36:41;;;;;;;;;;;;;;;24.69;41.76;99145.59;1875739;74;20183;-41
2023/05/01 10:39:36;;;;;;;;;;;;;;;24.68;41.70;99145.31;1893537;76;20178;-41
2023/05/01 10:42:25;;;;;;;;;;;;;;;24.68;41.75;99147.23;1893748;76;20210;-41
2023/05/01 10:45:28;;;;;;;;;;;;;;;24.69;41.76;99144.78;1883161;76;20216;-41
2023/05/01 10:48:17;;;;;;;;;;;;;;;24.69;41.76;99144.21;1903791;75;20177;-41
2023/05/01 10:51:11;;;;;;;;;;;;;;;24.66;41.82;99142.00;1852081;76;20215;-41
2023/05/01 10:54:15;;;;;;;;;;;;;;;24.68;41.75;99140.36;1832589;78;20177;-41
2023/05/01 10:57:03;;;;;;;;;;;;;;;24.60;41.89;99129.28;1819293;78;20201;-42
2023/05/01 11:00:01;;;;;;;;;;;;;;;24.66;41.96;99137.88;1833285;77;20163;-42
2023/05/01 11:02:48;;;;;;;;;;;;;;;24.68;41.92;99132.13;1850372;78;20244;-41
2023/05/01 11:05:54;;;;;;;;;;;;;;;24.68;41.97;99137.08;1839398;78;20204;-40
2023/05/01 11:08:44;;;;;;;;;;;;;;;24.68;41.97;99132.95;1823307;78;20162;-41
2023/05/01 11:11:33;;;;;;;;;;;;;;;24.68;41.83;99126.63;1841505;78;20194;-42
2023/05/01 11:14:20;;;;;;;;;;;;;;;24.68;41.96;99117.85;1846864;77;20191;-41
2023/05/01 11:17:07;;;;;;;;;;;;;;;24.70;41.88;99118.42;1846122;77;20200;-41
2023/05/01 11:19:55;;;;;;;;;;;;;;;24.72;41.88;99122.27;1833535;78;20231;-40
2023/05/01 11:22:46;;;;;;;;;;;;;;;24.73;41.85;99117.08;1849672;77;20170;-40
2023/05/01 11:25:33;;;;;;;;;;;;;;;24.75;41.91;99117.64;1844685;77;20205;-40
2023/05/01 11:28:21;;;;;;;;;;;;;;;24.77;41.90;99107.26;1830684;78;20167;-40
2023/05/01 11:31:10;;;;;;;;;;;;;;;24.76;41.84;99100.13;1844834;78;20123;-40
2023/05/01 11:33:59;;;;;;;;;;;;;;;24.79;41.78;99097.38;1830205;78;20182;-39
2023/05/01 11:36:50;;;;;;;;;;;;;;;24.79;41.74;99091.88;1843759;76;20172;-40
2023/05/01 11:39:37;;;;;;;;;;;;;;;24.79;41.84;99088.59;1836961;78;20131;-40
2023/05/01 11:42:24;;;;;;;;;;;;;;;24.77;41.68;99082.53;1831667;78;20177;-40
2023/05/01 11:45:13;;;;;;;;;;;;;;;24.79;41.90;99076.77;1831475;78;20228;-40
2023/05/01 11:48:01;;;;;;;;;;;;;;;24.80;41.81;99075.70;1842814;78;20171;-40
2023/05/01 11:50:48;;;;;;;;;;;;;;;24.80;41.61;99077.91;1838290;78;20244;-40
2023/05/01 11:53:36;;;;;;;;;;;;;;;24.80;41.67;99082.56;1838271;78;20166;-40
2023/05/01 11:56:23;;;;;;;;;;;;;;;24.81;41.68;99074.05;1822205;78;20136;-40
2023/05/01 11:59:15;;;;;;;;;;;;;;;24.82;41.66;99066.64;1868805;76;20172;-42
2023/05/01 12:02:03;;;;;;;;;;;;;;;24.83;41.64;99065.57;1857334;76;20156;-40
2023/05/01 12:04:51;;;;;;;;;;;;;;;24.81;41.69;99060.88;1867232;76;20188;-40
2023/05/01 12:07:39;;;;;;;;;;;;;;;24.82;41.62;99055.13;1863121;77;20192;-40
2023/05/01 12:10:26;;;;;;;;;;;;;;;24.76;41.69;99054.80;1829822;78;20165;-40
2023/05/01 12:13:14;;;;;;;;;;;;;;;24.80;41.67;99061.42;1831952;78;20125;-40
2023/05/01 12:16:03;;;;;;;;;;;;;;;24.81;41.68;99073.25;1850568;78;20174;-42
2023/05/01 12:18:51;;;;;;;;;;;;;;;24.81;41.51;99069.93;1831598;78;20123;-40
2023/05/01 12:21:38;;;;;;;;;;;;;;;24.82;41.67;99066.64;1873364;76;20131;-41
2023/05/01 12:24:26;;;;;;;;;;;;;;;24.78;41.57;99082.83;1829667;78;20186;-40
2023/05/01 12:27:14;;;;;;;;;;;;;;;24.80;41.61;99066.08;1868834;76;20212;-45
2023/05/01 12:30:01;;;;;;;;;;;;;;;24.79;41.60;99069.36;1856206;76;20203;-44
2023/05/01 12:32:50;;;;;;;;;;;;;;;24.78;41.56;99068.26;1819123;78;20238;-41
2023/05/01 12:35:39;;;;;;;;;;;;;;;24.80;41.55;99075.70;1833382;78;20219;-42
2023/05/01 12:38:27;;;;;;;;;;;;;;;24.84;41.46;99072.70;1845144;78;20170;-41
2023/05/01 12:41:15;;;;;;;;;;;;;;;24.83;41.56;99074.65;1853947;77;20128;-45
2023/05/01 12:44:04;;;;;;;;;;;;;;;24.84;41.57;99074.08;1901905;75;20201;-41
2023/05/01 12:46:55;;;;;;;;;;;;;;;24.87;41.60;99073.57;1909128;75;20234;-42
2023/05/01 12:49:43;;;;;;;;;;;;;;;24.87;41.53;99066.70;1914334;75;20204;-40
2023/05/01 12:52:30;;;;;;;;;;;;;;;24.88;41.65;99058.76;1898774;75;20170;-41
2023/05/01 12:55:18;;;;;;;;;;;;;;;24.87;41.50;99051.05;1908980;74;20174;-42
2023/05/01 12:58:05;;;;;;;;;;;;;;;24.88;41.46;99054.64;1897432;75;20236;-43
2023/05/01 13:00:54;;;;;;;;;;;;;;;24.91;41.50;99055.47;1910076;75;20193;-41
2023/05/01 13:03:43;;;;;;;;;;;;;;;24.90;41.48;99056.58;1912875;75;20213;-43
2023/05/01 13:06:32;;;;;;;;;;;;;;;24.93;41.53;99050.53;1913554;75;20217;-41
2023/05/01 13:09:19;;;;;;;;;;;;;;;24.93;41.44;99046.41;1911028;75;20166;-44
2023/05/01 13:12:08;;;;;;;;;;;;;;;24.94;41.44;99045.34;1899937;75;20159;-44
2023/05/01 13:14:56;;;;;;;;;;;;;;;24.96;41.62;99037.66;1895555;74;20220;-45
2023/05/01 13:17:44;;;;;;;;;;;;;;;24.97;41.50;99047.58;1909156;75;20183;-46
2023/05/01 13:20:32;;;;;;;;;;;;;;;24.99;41.41;99059.12;1905370;75;20279;-46
2023/05/01 13:23:19;;;;;;;;;;;;;;;24.96;41.39;99065.97;1901760;75;20178;-44
2023/05/01 13:26:08;;;;;;;;;;;;;;;24.97;41.38;99074.48;1903867;75;20272;-43
2023/05/01 13:28:56;;;;;;;;;;;;;;;24.97;41.42;99079.98;1908988;75;20170;-44
2023/05/01 13:31:44;;;;;;;;;;;;;;;24.97;41.40;99091.55;1912880;74;20204;-47
2023/05/01 13:34:32;;;;;;;;;;;;;;;24.98;41.39;99094.02;1906678;74;20119;-46
2023/05/01 13:37:23;;;;;;;;;;;;;;;24.97;41.36;99103.91;1903687;75;20192;-42
2023/05/01 13:40:11;;;;;;;;;;;;;;;24.97;41.37;99103.91;1903242;75;20128;-43
2023/05/01 13:42:58;;;;;;;;;;;;;;;24.98;41.46;99108.30;1904072;75;20198;-44
2023/05/01 13:45:46;;;;;;;;;;;;;;;24.98;41.48;99105.01;1890727;75;20184;-42
2023/05/01 13:48:34;;;;;;;;;;;;;;;24.97;41.41;99101.97;1903376;74;20172;-41
2023/05/01 13:51:23;;;;;;;;;;;;;;;24.96;41.58;99117.34;1911733;75;20194;-43
2023/05/01 13:54:11;;;;;;;;;;;;;;;24.97;41.65;99131.39;1906369;75;20161;-45
2023/05/01 13:57:00;;;;;;;;;;;;;;;24.94;41.59;99125.02;1886062;74;20220;-41
2023/05/01 13:59:47;;;;;;;;;;;;;;;24.95;41.45;99115.70;1895776;75;20208;-45
2023/05/01 14:02:37;;;;;;;;;;;;;;;24.95;41.39;99090.97;1922122;74;20194;-46
2023/05/01 14:05:27;;;;;;;;;;;;;;;24.98;41.41;99100.05;1908838;75;20118;-42
2023/05/01 14:08:15;;;;;;;;;;;;;;;24.95;41.37;99093.16;1888314;74;20126;-46
2023/05/01 14:11:04;;;;;;;;;;;;;;;24.94;41.36;99078.31;1909430;74;20118;-44
2023/05/01 14:13:52;;;;;;;;;;;;;;;24.94;41.39;99084.64;1893969;75;20154;-46
2023/05/01 14:16:41;;;;;;;;;;;;;;;24.93;41.44;99089.00;1914033;75;20153;-41
2023/05/01 14:19:28;;;;;;;;;;;;;;;24.95;41.50;99102.77;1895627;75;20159;-43
2023/05/01 14:22:15;;;;;;;;;;;;;;;24.96;41.46;99124.22;1898438;75;20169;-45
2023/05/01 14:25:04;;;;;;;;;;;;;;;24.96;41.39;99118.72;1895719;74;20193;-41
2023/05/01 14:27:52;;;;;;;;;;;;;;;24.96;41.45;99130.55;1890085;75;20148;-43
2023/05/01 14:30:41;;;;;;;;;;;;;;;24.96;41.44;99123.67;1916930;74;20170;-44
2023/05/01 14:33:28;;;;;;;;;;;;;;;24.94;41.51;99126.40;1905463;75;20169;-43
2023/05/01 14:36:17;;;;;;;;;;;;;;;24.92;41.46;99130.79;1900428;75;20169;-44
2023/05/01 14:39:04;;;;;;;;;;;;;;;24.91;41.50;99124.99;1890783;75;20154;-44